Time;durP1;ratioP1;P1;durP2;ratioP2;P2;SDS_P1;SDS_P2;PMS_P1;PMS_P2;Temp;Humidity;BMP_temperature;BMP_pressure;BME280_temperature;BME280_humidity;BME280_pressure;Samples;Min_cycle;Max_cycle;Signal;HPM_P1;HPM_P2
2024/01/28 00:00:11;;;;;;;29.67;16.67;;;;;;;;;;5112847;28;20069;-75
2024/01/28 00:02:36;;;;;;;27.80;15.88;;;;;;;;;;5103608;28;20296;-75
2024/01/28 00:05:01;;;;;;;29.58;15.05;;;;;;;;;;5108048;28;20382;-75
2024/01/28 00:07:26;;;;;;;28.20;14.48;;;;;;;;;;5104763;28;20035;-75
2024/01/28 00:09:52;;;;;;;27.83;15.03;;;;;;;;;;5106047;28;20030;-75
2024/01/28 00:12:17;;;;;;;26.10;14.90;;;;;;;;;;5110892;28;20265;-75
2024/01/28 00:14:42;;;;;;;29.37;15.27;;;;;;;;;;5104236;28;20305;-75
2024/01/28 00:17:07;;;;;;;33.70;15.40;;;;;;;;;;5106539;28;20299;-75
2024/01/28 00:19:33;;;;;;;25.40;13.77;;;;;;;;;;5105278;28;20775;-75
2024/01/28 00:21:58;;;;;;;27.15;15.25;;;;;;;;;;5105233;28;20311;-75
2024/01/28 00:24:23;;;;;;;24.80;14.90;;;;;;;;;;5108115;28;20015;-75
2024/01/28 00:26:49;;;;;;;32.83;15.07;;;;;;;;;;5104994;28;20107;-75
2024/01/28 00:29:14;;;;;;;24.25;14.25;;;;;;;;;;5106697;28;20020;-75
2024/01/28 00:31:39;;;;;;;33.75;14.13;;;;;;;;;;5106051;28;20524;-75
2024/01/28 00:34:05;;;;;;;28.17;14.40;;;;;;;;;;5104523;28;20531;-75
2024/01/28 00:36:30;;;;;;;23.38;13.50;;;;;;;;;;5108922;28;20257;-75
2024/01/28 00:38:55;;;;;;;30.55;15.27;;;;;;;;;;5105991;28;20066;-75
2024/01/28 00:41:21;;;;;;;28.83;13.67;;;;;;;;;;5108856;28;20023;-75
2024/01/28 00:43:47;;;;;;;28.98;15.10;;;;;;;;;;5104797;28;20836;-75
2024/01/28 00:46:12;;;;;;;26.60;13.48;;;;;;;;;;5104628;28;20044;-75
2024/01/28 00:48:37;;;;;;;31.07;15.67;;;;;;;;;;5105240;28;20398;-75
2024/01/28 00:51:02;;;;;;;24.73;13.77;;;;;;;;;;5103964;28;20290;-75
2024/01/28 00:53:28;;;;;;;28.25;14.43;;;;;;;;;;5105766;28;20289;-75
2024/01/28 00:55:53;;;;;;;29.50;14.97;;;;;;;;;;5105317;28;20089;-75
2024/01/28 00:58:18;;;;;;;34.13;14.77;;;;;;;;;;5103651;28;20737;-76
2024/01/28 01:00:43;;;;;;;24.48;14.13;;;;;;;;;;5107727;28;20332;-75
2024/01/28 01:03:09;;;;;;;26.03;13.23;;;;;;;;;;5101638;28;20111;-75
2024/01/28 01:05:34;;;;;;;25.60;14.25;;;;;;;;;;5109684;28;20284;-75
2024/01/28 01:07:59;;;;;;;21.65;12.75;;;;;;;;;;5101660;28;20483;-75
2024/01/28 01:10:25;;;;;;;22.10;12.67;;;;;;;;;;5109028;28;20055;-75
2024/01/28 01:12:50;;;;;;;19.73;12.60;;;;;;;;;;5103008;28;20327;-75
2024/01/28 01:15:16;;;;;;;25.25;12.75;;;;;;;;;;5108370;28;20023;-75
2024/01/28 01:17:42;;;;;;;25.60;13.73;;;;;;;;;;5105243;28;20475;-75
2024/01/28 01:20:07;;;;;;;27.50;13.57;;;;;;;;;;5112884;28;20046;-75
2024/01/28 01:22:32;;;;;;;21.20;13.48;;;;;;;;;;5105433;28;20019;-75
2024/01/28 01:24:58;;;;;;;24.48;12.82;;;;;;;;;;5100953;28;20375;-75
2024/01/28 01:27:23;;;;;;;22.90;13.20;;;;;;;;;;5104828;28;20024;-75
2024/01/28 01:29:49;;;;;;;24.40;13.18;;;;;;;;;;5104814;28;20015;-75
2024/01/28 01:32:14;;;;;;;23.90;13.10;;;;;;;;;;5104478;28;20102;-75
2024/01/28 01:34:39;;;;;;;21.95;12.77;;;;;;;;;;5105027;28;20765;-75
2024/01/28 01:37:04;;;;;;;23.30;13.03;;;;;;;;;;5105230;28;20475;-75
2024/01/28 01:39:30;;;;;;;23.50;12.47;;;;;;;;;;5104384;28;20295;-75
2024/01/28 01:41:55;;;;;;;21.27;12.50;;;;;;;;;;5108965;28;20297;-75
2024/01/28 01:44:20;;;;;;;26.85;12.60;;;;;;;;;;5103012;28;20093;-75
2024/01/28 01:46:46;;;;;;;26.92;13.77;;;;;;;;;;5104751;28;20099;-75
2024/01/28 01:49:11;;;;;;;24.17;12.05;;;;;;;;;;5102853;28;20020;-75
2024/01/28 01:51:37;;;;;;;22.27;12.93;;;;;;;;;;5103967;28;20011;-75
2024/01/28 01:54:02;;;;;;;24.42;13.45;;;;;;;;;;5103375;28;20374;-75
2024/01/28 01:56:29;;;;;;;25.45;13.32;;;;;;;;;;5104379;28;20451;-75
2024/01/28 01:58:55;;;;;;;27.55;13.02;;;;;;;;;;5103448;27;20032;-75
2024/01/28 02:01:20;;;;;;;22.15;12.55;;;;;;;;;;5103289;28;20024;-75
2024/01/28 02:03:45;;;;;;;19.08;12.48;;;;;;;;;;5104185;28;20107;-75
2024/01/28 02:06:11;;;;;;;24.70;13.88;;;;;;;;;;5102407;28;20020;-75
2024/01/28 02:08:36;;;;;;;20.98;13.13;;;;;;;;;;5095854;28;20020;-75
2024/01/28 02:11:02;;;;;;;18.85;12.65;;;;;;;;;;5103069;28;20046;-75
2024/01/28 02:13:27;;;;;;;27.13;13.75;;;;;;;;;;5106163;28;20431;-75
2024/01/28 02:15:53;;;;;;;25.05;13.15;;;;;;;;;;5107812;28;20100;-75
2024/01/28 02:18:18;;;;;;;30.17;13.97;;;;;;;;;;5105102;28;20072;-75
2024/01/28 02:20:43;;;;;;;23.40;13.70;;;;;;;;;;5104984;28;20266;-75
2024/01/28 02:23:09;;;;;;;24.85;13.68;;;;;;;;;;5102996;28;20364;-75
2024/01/28 02:25:34;;;;;;;28.63;12.68;;;;;;;;;;5107697;28;20046;-75
2024/01/28 02:27:59;;;;;;;20.95;12.88;;;;;;;;;;5100803;28;20027;-75
2024/01/28 02:30:25;;;;;;;24.08;13.18;;;;;;;;;;5107437;28;20038;-75
2024/01/28 02:32:51;;;;;;;23.23;12.40;;;;;;;;;;5102608;28;20028;-75
2024/01/28 02:35:16;;;;;;;25.35;13.13;;;;;;;;;;5103922;28;20051;-75
2024/01/28 02:37:42;;;;;;;22.90;14.15;;;;;;;;;;5103658;28;20107;-75
2024/01/28 02:40:08;;;;;;;21.40;13.52;;;;;;;;;;5106231;28;20055;-75
2024/01/28 02:42:33;;;;;;;27.70;12.98;;;;;;;;;;5102994;28;20479;-75
2024/01/28 02:44:59;;;;;;;23.88;12.10;;;;;;;;;;5102311;28;20035;-75
2024/01/28 02:47:24;;;;;;;25.02;14.40;;;;;;;;;;5105884;28;20031;-75
2024/01/28 02:49:49;;;;;;;18.20;12.67;;;;;;;;;;5103958;28;20024;-75
2024/01/28 02:52:14;;;;;;;25.77;13.00;;;;;;;;;;5105215;28;20270;-75
2024/01/28 02:54:40;;;;;;;23.67;12.73;;;;;;;;;;5114733;28;20697;-75
2024/01/28 02:57:05;;;;;;;24.52;12.70;;;;;;;;;;5108299;28;20274;-75
2024/01/28 02:59:31;;;;;;;26.33;13.02;;;;;;;;;;5112266;28;20048;-75
2024/01/28 03:01:57;;;;;;;27.80;13.90;;;;;;;;;;5105739;28;20104;-75
2024/01/28 03:04:22;;;;;;;26.05;14.77;;;;;;;;;;5112398;28;20046;-75
2024/01/28 03:06:47;;;;;;;23.20;13.95;;;;;;;;;;5106886;28;20344;-75
2024/01/28 03:09:13;;;;;;;23.50;14.20;;;;;;;;;;5102510;28;20416;-75
2024/01/28 03:11:38;;;;;;;30.13;15.40;;;;;;;;;;5110770;28;20264;-75
2024/01/28 03:14:03;;;;;;;23.10;14.20;;;;;;;;;;5108592;28;20055;-75
2024/01/28 03:16:28;;;;;;;23.63;13.25;;;;;;;;;;5110326;28;20011;-75
2024/01/28 03:18:53;;;;;;;26.63;14.37;;;;;;;;;;5109638;28;20027;-75
2024/01/28 03:21:19;;;;;;;25.77;14.10;;;;;;;;;;5108613;28;20946;-75
2024/01/28 03:23:45;;;;;;;22.65;14.10;;;;;;;;;;5108331;28;20409;-75
2024/01/28 03:26:10;;;;;;;21.08;13.15;;;;;;;;;;5106672;28;20106;-75
2024/01/28 03:28:35;;;;;;;21.80;13.48;;;;;;;;;;5111560;28;20015;-75
2024/01/28 03:31:01;;;;;;;26.30;14.43;;;;;;;;;;5105773;28;20107;-75
2024/01/28 03:33:26;;;;;;;23.42;14.27;;;;;;;;;;5111161;28;20190;-75
2024/01/28 03:35:51;;;;;;;23.20;13.45;;;;;;;;;;5108873;28;20008;-75
2024/01/28 03:38:17;;;;;;;23.50;12.60;;;;;;;;;;5107689;28;20469;-75
2024/01/28 03:40:43;;;;;;;24.02;13.15;;;;;;;;;;5107240;28;20268;-75
2024/01/28 03:43:08;;;;;;;25.95;12.90;;;;;;;;;;5109987;28;20011;-75
2024/01/28 03:45:33;;;;;;;20.95;12.38;;;;;;;;;;5113762;28;20045;-75
2024/01/28 03:47:58;;;;;;;20.27;12.57;;;;;;;;;;5105871;28;20048;-75
2024/01/28 03:50:24;;;;;;;23.77;12.27;;;;;;;;;;5108586;28;20277;-75
2024/01/28 03:52:50;;;;;;;21.10;12.10;;;;;;;;;;5110920;28;20333;-75
2024/01/28 03:55:15;;;;;;;24.13;12.50;;;;;;;;;;5106679;28;20471;-75
2024/01/28 03:57:40;;;;;;;23.80;13.63;;;;;;;;;;5114413;28;20011;-75
2024/01/28 04:00:06;;;;;;;19.70;11.88;;;;;;;;;;5102677;28;20431;-75
2024/01/28 04:02:31;;;;;;;21.23;12.27;;;;;;;;;;5113481;28;20016;-75
2024/01/28 04:04:57;;;;;;;27.40;12.68;;;;;;;;;;5105962;28;20104;-75
2024/01/28 04:07:22;;;;;;;23.63;12.80;;;;;;;;;;5110775;28;20022;-75
2024/01/28 04:09:47;;;;;;;23.90;11.37;;;;;;;;;;5107879;28;20640;-75
2024/01/28 04:12:12;;;;;;;22.17;11.90;;;;;;;;;;5113336;28;20296;-75
2024/01/28 04:14:37;;;;;;;26.88;12.18;;;;;;;;;;5103985;28;20060;-75
2024/01/28 04:17:02;;;;;;;22.97;11.60;;;;;;;;;;5103425;28;20023;-75
2024/01/28 04:19:28;;;;;;;27.30;11.20;;;;;;;;;;5105532;28;20265;-75
2024/01/28 04:21:53;;;;;;;22.03;11.53;;;;;;;;;;5104500;28;20467;-75
2024/01/28 04:24:18;;;;;;;19.60;10.67;;;;;;;;;;5108156;28;20276;-75
2024/01/28 04:26:43;;;;;;;20.40;11.10;;;;;;;;;;5102783;28;20669;-75
2024/01/28 04:29:08;;;;;;;19.67;11.27;;;;;;;;;;5104090;28;20019;-75
2024/01/28 04:31:33;;;;;;;23.52;11.50;;;;;;;;;;5101421;28;20262;-75
2024/01/28 04:33:59;;;;;;;21.40;10.57;;;;;;;;;;5107548;28;20035;-75
2024/01/28 04:36:26;;;;;;;23.47;11.37;;;;;;;;;;5105365;28;20795;-75
2024/01/28 04:38:51;;;;;;;18.20;10.30;;;;;;;;;;5109484;28;20620;-75
2024/01/28 04:41:16;;;;;;;25.25;11.95;;;;;;;;;;5100751;28;20020;-75
2024/01/28 04:43:41;;;;;;;22.63;10.32;;;;;;;;;;5109771;28;20015;-75
2024/01/28 04:46:07;;;;;;;16.05;10.60;;;;;;;;;;5106471;28;20008;-75
2024/01/28 04:48:32;;;;;;;18.70;10.52;;;;;;;;;;5107812;28;20023;-75
2024/01/28 04:50:57;;;;;;;16.60;9.25;;;;;;;;;;5104724;28;20023;-75
2024/01/28 04:53:22;;;;;;;21.35;11.90;;;;;;;;;;5109329;28;20113;-75
2024/01/28 04:55:48;;;;;;;19.30;9.80;;;;;;;;;;5109479;28;20107;-75
2024/01/28 04:58:13;;;;;;;15.90;9.75;;;;;;;;;;5104862;28;20022;-75
2024/01/28 05:00:38;;;;;;;18.83;9.90;;;;;;;;;;5105386;28;20059;-75
2024/01/28 05:03:03;;;;;;;21.02;10.25;;;;;;;;;;5106080;28;20459;-75
2024/01/28 05:05:29;;;;;;;21.33;10.48;;;;;;;;;;5106081;28;20324;-75
2024/01/28 05:07:54;;;;;;;19.23;9.70;;;;;;;;;;5107529;28;20020;-75
2024/01/28 05:10:19;;;;;;;18.63;9.80;;;;;;;;;;5103701;28;20726;-75
2024/01/28 05:12:45;;;;;;;14.20;9.35;;;;;;;;;;5107433;28;20031;-75
2024/01/28 05:15:14;;;;;;;18.75;9.88;;;;;;;;;;5107675;28;20020;-75
2024/01/28 05:17:39;;;;;;;17.52;9.35;;;;;;;;;;5103544;28;20012;-75
2024/01/28 05:20:04;;;;;;;17.30;9.87;;;;;;;;;;5104981;28;20038;-75
2024/01/28 05:22:29;;;;;;;20.63;8.85;;;;;;;;;;5108376;28;20745;-75
2024/01/28 05:24:55;;;;;;;18.27;9.33;;;;;;;;;;5108719;28;20090;-75
2024/01/28 05:27:20;;;;;;;18.20;9.45;;;;;;;;;;5107330;28;20612;-75
2024/01/28 05:29:45;;;;;;;20.77;9.38;;;;;;;;;;5105343;28;20028;-75
2024/01/28 05:32:12;;;;;;;16.95;10.00;;;;;;;;;;5101243;28;20015;-75
2024/01/28 05:34:37;;;;;;;21.88;9.90;;;;;;;;;;5103521;28;20036;-75
2024/01/28 05:37:03;;;;;;;19.43;9.00;;;;;;;;;;5105545;28;20019;-75
2024/01/28 05:39:28;;;;;;;17.13;8.50;;;;;;;;;;5103897;28;20753;-75
2024/01/28 05:41:53;;;;;;;14.70;9.10;;;;;;;;;;5104373;28;20032;-75
2024/01/28 05:44:18;;;;;;;16.07;9.37;;;;;;;;;;5105193;28;20018;-75
2024/01/28 05:46:43;;;;;;;18.37;9.03;;;;;;;;;;5103722;28;20274;-75
2024/01/28 05:49:11;;;;;;;20.42;9.57;;;;;;;;;;5108495;28;20270;-75
2024/01/28 05:51:39;;;;;;;19.45;10.95;;;;;;;;;;5100660;28;20472;-75
2024/01/28 05:54:04;;;;;;;22.50;9.90;;;;;;;;;;5110978;28;20046;-74
2024/01/28 05:56:29;;;;;;;17.77;9.23;;;;;;;;;;5106277;28;20020;-75
2024/01/28 05:58:54;;;;;;;17.07;9.53;;;;;;;;;;5108082;28;20036;-75
2024/01/28 06:01:20;;;;;;;20.90;10.00;;;;;;;;;;5105654;28;20251;-75
2024/01/28 06:03:45;;;;;;;21.80;10.95;;;;;;;;;;5107259;28;20023;-75
2024/01/28 06:06:10;;;;;;;18.90;10.47;;;;;;;;;;5104682;28;20043;-74
2024/01/28 06:08:35;;;;;;;17.73;10.13;;;;;;;;;;5107584;28;20774;-75
2024/01/28 06:11:00;;;;;;;22.83;10.40;;;;;;;;;;5104106;28;20266;-75
2024/01/28 06:13:25;;;;;;;21.20;10.23;;;;;;;;;;5104786;28;20063;-75
2024/01/28 06:15:54;;;;;;;20.55;10.38;;;;;;;;;;5101997;28;20274;-75
2024/01/28 06:18:19;;;;;;;19.13;10.80;;;;;;;;;;5107326;28;20428;-75
2024/01/28 06:20:45;;;;;;;27.08;12.15;;;;;;;;;;5100113;28;20076;-75
2024/01/28 06:23:10;;;;;;;19.98;9.80;;;;;;;;;;5107041;28;20494;-75
2024/01/28 06:25:35;;;;;;;19.23;9.85;;;;;;;;;;5102863;28;20375;-75
2024/01/28 06:28:00;;;;;;;17.60;10.27;;;;;;;;;;5109085;28;20055;-75
2024/01/28 06:30:27;;;;;;;20.10;9.50;;;;;;;;;;5103754;28;20019;-75
2024/01/28 06:32:52;;;;;;;17.27;9.85;;;;;;;;;;5106078;28;20355;-75
2024/01/28 06:35:18;;;;;;;22.08;9.68;;;;;;;;;;5105039;28;20026;-75
2024/01/28 06:37:43;;;;;;;18.97;9.80;;;;;;;;;;5105935;28;20026;-75
2024/01/28 06:40:08;;;;;;;20.35;10.18;;;;;;;;;;5107591;28;20277;-75
2024/01/28 06:42:33;;;;;;;23.08;9.85;;;;;;;;;;5102721;28;20019;-75
2024/01/28 06:44:59;;;;;;;21.65;10.35;;;;;;;;;;5103166;28;20043;-75
2024/01/28 06:47:24;;;;;;;18.05;9.43;;;;;;;;;;5104815;28;20047;-75
2024/01/28 06:49:50;;;;;;;16.92;9.25;;;;;;;;;;5107171;28;20028;-75
2024/01/28 06:52:15;;;;;;;15.60;9.18;;;;;;;;;;5110968;28;20022;-75
2024/01/28 06:54:41;;;;;;;20.83;10.00;;;;;;;;;;5107826;28;20094;-75
2024/01/28 06:57:06;;;;;;;18.38;9.60;;;;;;;;;;5104747;28;20009;-74
2024/01/28 06:59:31;;;;;;;20.35;9.77;;;;;;;;;;5105759;28;20127;-74
2024/01/28 07:01:56;;;;;;;20.95;10.45;;;;;;;;;;5103425;28;20483;-74
2024/01/28 07:04:21;;;;;;;21.77;9.93;;;;;;;;;;5111609;28;20068;-75
2024/01/28 07:06:47;;;;;;;21.87;10.73;;;;;;;;;;5105280;28;20486;-74
2024/01/28 07:09:12;;;;;;;19.45;9.90;;;;;;;;;;5105175;28;20261;-74
2024/01/28 07:11:38;;;;;;;18.92;10.20;;;;;;;;;;5106512;28;20016;-74
2024/01/28 07:14:03;;;;;;;28.83;10.20;;;;;;;;;;5103292;28;20388;-74
2024/01/28 07:16:28;;;;;;;20.10;9.48;;;;;;;;;;5102975;28;20274;-74
2024/01/28 07:18:53;;;;;;;17.93;9.20;;;;;;;;;;5105880;28;20023;-74
2024/01/28 07:21:19;;;;;;;18.30;8.30;;;;;;;;;;5110172;28;20258;-75
2024/01/28 07:23:44;;;;;;;16.05;8.73;;;;;;;;;;5105078;28;20276;-74
2024/01/28 07:26:09;;;;;;;18.63;8.83;;;;;;;;;;5101596;28;20111;-75
2024/01/28 07:28:34;;;;;;;24.45;9.93;;;;;;;;;;5108671;28;20261;-75
2024/01/28 07:31:00;;;;;;;18.13;8.88;;;;;;;;;;5101967;28;20467;-75
2024/01/28 07:33:25;;;;;;;17.20;8.00;;;;;;;;;;5107145;28;20524;-74
2024/01/28 07:35:50;;;;;;;22.60;8.68;;;;;;;;;;5101181;28;20368;-75
2024/01/28 07:38:15;;;;;;;18.65;8.98;;;;;;;;;;5111407;28;20524;-75
2024/01/28 07:40:40;;;;;;;16.20;8.40;;;;;;;;;;5106236;28;20032;-75
2024/01/28 07:43:06;;;;;;;20.27;10.33;;;;;;;;;;5105536;28;20345;-75
2024/01/28 07:45:31;;;;;;;16.10;8.70;;;;;;;;;;5107050;28;20280;-75
2024/01/28 07:47:56;;;;;;;17.27;8.85;;;;;;;;;;5107047;28;20016;-75
2024/01/28 07:50:22;;;;;;;17.40;8.85;;;;;;;;;;5110845;28;20041;-74
2024/01/28 07:52:47;;;;;;;16.70;8.57;;;;;;;;;;5107603;28;20020;-74
2024/01/28 07:55:12;;;;;;;19.60;9.10;;;;;;;;;;5108547;28;20031;-74
2024/01/28 07:57:38;;;;;;;15.43;8.60;;;;;;;;;;5108300;28;20016;-74
2024/01/28 08:00:04;;;;;;;19.23;8.70;;;;;;;;;;5105464;28;20407;-75
2024/01/28 08:02:30;;;;;;;17.85;8.35;;;;;;;;;;5110002;28;20470;-74
2024/01/28 08:04:55;;;;;;;18.08;8.48;;;;;;;;;;5105474;28;20016;-74
2024/01/28 08:07:20;;;;;;;21.38;9.88;;;;;;;;;;5108740;28;20027;-74
2024/01/28 08:09:45;;;;;;;18.53;8.30;;;;;;;;;;5113782;28;20409;-74
2024/01/28 08:12:10;;;;;;;18.43;9.10;;;;;;;;;;5108074;28;20266;-75
2024/01/28 08:14:36;;;;;;;22.03;8.47;;;;;;;;;;5111833;28;20641;-75
2024/01/28 08:17:01;;;;;;;16.77;9.35;;;;;;;;;;5106307;28;20361;-75
2024/01/28 08:19:26;;;;;;;16.30;9.25;;;;;;;;;;5104620;28;20030;-74
2024/01/28 08:21:51;;;;;;;23.48;9.23;;;;;;;;;;5112316;28;20524;-74
2024/01/28 08:24:16;;;;;;;22.13;8.47;;;;;;;;;;5104756;28;20455;-74
2024/01/28 08:26:42;;;;;;;15.38;8.15;;;;;;;;;;5112943;28;20300;-75
2024/01/28 08:29:07;;;;;;;17.05;8.73;;;;;;;;;;5106710;28;20052;-74
2024/01/28 08:31:32;;;;;;;21.73;9.30;;;;;;;;;;5105402;28;20040;-74
2024/01/28 08:33:57;;;;;;;17.77;9.33;;;;;;;;;;5107778;28;20772;-75
2024/01/28 08:36:22;;;;;;;20.93;8.93;;;;;;;;;;5103716;28;20274;-75
2024/01/28 08:38:47;;;;;;;14.75;8.82;;;;;;;;;;5109977;28;20262;-75
2024/01/28 08:41:13;;;;;;;16.47;8.57;;;;;;;;;;5102115;28;20023;-74
2024/01/28 08:43:38;;;;;;;18.42;9.00;;;;;;;;;;5109998;28;20778;-75
2024/01/28 08:46:03;;;;;;;19.23;8.63;;;;;;;;;;5102127;28;20016;-74
2024/01/28 08:48:29;;;;;;;23.25;10.15;;;;;;;;;;5108091;28;20020;-75
2024/01/28 08:50:54;;;;;;;16.20;9.20;;;;;;;;;;5108050;28;20016;-75
2024/01/28 08:53:19;;;;;;;20.13;10.33;;;;;;;;;;5106277;28;20050;-75
2024/01/28 08:55:44;;;;;;;21.38;11.65;;;;;;;;;;5105092;28;20288;-74
2024/01/28 08:58:10;;;;;;;20.37;12.83;;;;;;;;;;5105132;28;20029;-75
2024/01/28 09:00:35;;;;;;;25.13;13.82;;;;;;;;;;5104580;28;20764;-75
2024/01/28 09:03:00;;;;;;;30.10;14.23;;;;;;;;;;5104582;28;20026;-76
2024/01/28 09:05:25;;;;;;;26.50;14.80;;;;;;;;;;5105735;28;20098;-75
2024/01/28 09:07:51;;;;;;;24.30;12.83;;;;;;;;;;5104707;28;20047;-74
2024/01/28 09:10:18;;;;;;;21.05;12.25;;;;;;;;;;5104917;28;20282;-75
2024/01/28 09:12:43;;;;;;;18.27;10.82;;;;;;;;;;5105619;28;20474;-75
2024/01/28 09:15:09;;;;;;;19.13;10.33;;;;;;;;;;5107930;28;20039;-75
2024/01/28 09:17:34;;;;;;;22.73;9.48;;;;;;;;;;5103845;28;20270;-75
2024/01/28 09:19:59;;;;;;;16.35;9.45;;;;;;;;;;5105273;28;20107;-74
2024/01/28 09:22:24;;;;;;;16.57;9.87;;;;;;;;;;5104348;28;20451;-74
2024/01/28 09:24:49;;;;;;;19.07;8.70;;;;;;;;;;5111956;28;20269;-74
2024/01/28 09:27:15;;;;;;;12.52;7.78;;;;;;;;;;5112562;28;20261;-74
2024/01/28 09:29:40;;;;;;;16.73;8.27;;;;;;;;;;5104084;28;20028;-74
2024/01/28 09:32:05;;;;;;;12.38;7.35;;;;;;;;;;5105700;28;20043;-74
2024/01/28 09:34:30;;;;;;;15.25;8.38;;;;;;;;;;5103774;28;20133;-74
2024/01/28 09:36:56;;;;;;;13.23;8.20;;;;;;;;;;5097503;28;20375;-74
2024/01/28 09:39:21;;;;;;;19.70;8.03;;;;;;;;;;5109459;28;20082;-74
2024/01/28 09:41:53;;;;;;;11.37;7.83;;;;;;;;;;5103275;28;20280;-75
2024/01/28 09:44:18;;;;;;;16.63;8.10;;;;;;;;;;5105324;28;20262;-74
2024/01/28 09:46:44;;;;;;;16.13;8.67;;;;;;;;;;5103053;28;20030;-74
2024/01/28 09:49:11;;;;;;;14.85;7.57;;;;;;;;;;5107760;28;20266;-74
2024/01/28 09:51:36;;;;;;;10.98;7.15;;;;;;;;;;5104991;28;20463;-74
2024/01/28 09:54:02;;;;;;;13.77;7.50;;;;;;;;;;5112382;28;20071;-74
2024/01/28 09:56:30;;;;;;;11.60;6.72;;;;;;;;;;5105350;28;20012;-74
2024/01/28 09:58:55;;;;;;;12.70;7.00;;;;;;;;;;5107659;28;20116;-74
2024/01/28 10:01:21;;;;;;;13.00;7.43;;;;;;;;;;5103043;28;20777;-74
2024/01/28 10:03:47;;;;;;;15.40;7.07;;;;;;;;;;5107137;28;20018;-74
2024/01/28 10:06:12;;;;;;;13.40;6.68;;;;;;;;;;5104205;28;20023;-74
2024/01/28 10:08:37;;;;;;;14.23;6.70;;;;;;;;;;5099851;28;20015;-74
2024/01/28 10:11:02;;;;;;;9.97;6.37;;;;;;;;;;5097514;28;20280;-74
2024/01/28 10:13:29;;;;;;;9.63;6.25;;;;;;;;;;5108732;28;20716;-74
2024/01/28 10:15:58;;;;;;;12.48;6.47;;;;;;;;;;5100178;28;20027;-74
2024/01/28 10:18:23;;;;;;;11.38;6.82;;;;;;;;;;5110113;28;20020;-74
2024/01/28 10:20:49;;;;;;;12.85;6.50;;;;;;;;;;5103799;28;20519;-74
2024/01/28 10:23:14;;;;;;;9.20;6.10;;;;;;;;;;5107749;28;20019;-74
2024/01/28 10:25:40;;;;;;;11.00;5.97;;;;;;;;;;5106402;28;20023;-74
2024/01/28 10:28:06;;;;;;;15.70;5.88;;;;;;;;;;5106144;28;20016;-74
2024/01/28 10:30:33;;;;;;;8.40;5.35;;;;;;;;;;5106879;28;20542;-74
2024/01/28 10:32:58;;;;;;;9.05;5.72;;;;;;;;;;5103717;28;20020;-74
2024/01/28 10:35:25;;;;;;;9.43;5.23;;;;;;;;;;5108481;28;20020;-74
2024/01/28 10:37:51;;;;;;;9.95;5.25;;;;;;;;;;5103161;28;20678;-74
2024/01/28 10:40:17;;;;;;;10.88;5.28;;;;;;;;;;5107270;28;20030;-75
2024/01/28 10:42:42;;;;;;;9.00;4.90;;;;;;;;;;5103285;28;20094;-75
2024/01/28 10:45:08;;;;;;;7.75;4.72;;;;;;;;;;5104088;28;20011;-74
2024/01/28 10:47:35;;;;;;;12.85;5.43;;;;;;;;;;5102851;28;20016;-74
2024/01/28 10:50:04;;;;;;;7.95;4.70;;;;;;;;;;5103436;28;20098;-75
2024/01/28 10:52:32;;;;;;;6.70;4.50;;;;;;;;;;5105061;28;20012;-74
2024/01/28 10:54:57;;;;;;;9.43;5.20;;;;;;;;;;5101251;28;20119;-75
2024/01/28 10:57:23;;;;;;;8.95;4.50;;;;;;;;;;5104981;28;20047;-75
2024/01/28 10:59:51;;;;;;;6.15;3.92;;;;;;;;;;5102779;28;20044;-75
2024/01/28 11:02:19;;;;;;;7.85;4.68;;;;;;;;;;5097382;28;20068;-76
2024/01/28 11:04:45;;;;;;;10.52;4.53;;;;;;;;;;5109439;28;20020;-75
2024/01/28 11:07:12;;;;;;;6.68;4.10;;;;;;;;;;5103689;28;20043;-75
2024/01/28 11:09:37;;;;;;;8.55;4.95;;;;;;;;;;5107001;28;20031;-76
2024/01/28 11:12:02;;;;;;;9.60;5.17;;;;;;;;;;5107120;28;20023;-74
2024/01/28 11:14:28;;;;;;;11.25;5.63;;;;;;;;;;5113276;28;20289;-71
2024/01/28 11:16:53;;;;;;;11.03;5.10;;;;;;;;;;5108253;28;20089;-73
2024/01/28 11:19:18;;;;;;;8.10;4.73;;;;;;;;;;5114402;28;20265;-73
2024/01/28 11:21:50;;;;;;;8.43;4.35;;;;;;;;;;5112975;28;20341;-74
2024/01/28 11:24:15;;;;;;;12.00;4.88;;;;;;;;;;5110139;28;20494;-76
2024/01/28 11:26:44;;;;;;;11.27;4.70;;;;;;;;;;5115564;28;20043;-74
2024/01/28 11:29:09;;;;;;;7.80;4.20;;;;;;;;;;5110338;28;20677;-75
2024/01/28 11:31:36;;;;;;;9.15;5.10;;;;;;;;;;5105929;28;20040;-75
2024/01/28 11:34:20;;;;;;;9.40;4.50;;;;;;;;;;5108397;28;20030;-75
2024/01/28 11:36:51;;;;;;;14.10;4.95;;;;;;;;;;5105817;28;20023;-75
2024/01/28 11:39:16;;;;;;;13.40;4.85;;;;;;;;;;5107851;28;20027;-75
2024/01/28 11:41:42;;;;;;;6.97;4.80;;;;;;;;;;5104946;28;20360;-75
2024/01/28 11:44:08;;;;;;;10.32;5.32;;;;;;;;;;5109421;28;20012;-75
2024/01/28 11:46:37;;;;;;;8.55;4.78;;;;;;;;;;5103947;28;20016;-75
2024/01/28 11:49:05;;;;;;;10.70;4.72;;;;;;;;;;5103514;28;20497;-75
2024/01/28 11:51:31;;;;;;;9.57;4.68;;;;;;;;;;5102968;28;20107;-75
2024/01/28 11:54:00;;;;;;;9.23;4.38;;;;;;;;;;5111577;28;20074;-75
2024/01/28 11:56:26;;;;;;;10.45;5.18;;;;;;;;;;5102762;28;20467;-75
2024/01/28 11:58:51;;;;;;;9.95;4.82;;;;;;;;;;5111370;28;20035;-75
2024/01/28 12:01:17;;;;;;;10.63;5.03;;;;;;;;;;5103676;28;20031;-75
2024/01/28 12:03:42;;;;;;;9.95;4.82;;;;;;;;;;5109649;28;20030;-75
2024/01/28 12:06:08;;;;;;;6.78;4.88;;;;;;;;;;5104984;28;20019;-75
2024/01/28 12:08:38;;;;;;;10.80;5.53;;;;;;;;;;5103660;28;20475;-75
2024/01/28 12:11:04;;;;;;;8.18;4.72;;;;;;;;;;5108548;28;20035;-75
2024/01/28 12:13:29;;;;;;;8.68;4.15;;;;;;;;;;5107312;28;20032;-75
2024/01/28 12:15:58;;;;;;;9.70;4.45;;;;;;;;;;5103083;28;20023;-75
2024/01/28 12:18:29;;;;;;;6.78;4.22;;;;;;;;;;5109562;28;20510;-75
2024/01/28 12:20:54;;;;;;;9.25;4.85;;;;;;;;;;5103189;28;20079;-75
2024/01/28 12:23:19;;;;;;;7.87;4.30;;;;;;;;;;5110606;28;20038;-74
2024/01/28 12:25:45;;;;;;;7.10;4.05;;;;;;;;;;5100811;28;20742;-75
2024/01/28 12:28:10;;;;;;;6.80;3.60;;;;;;;;;;5109671;28;20035;-75
2024/01/28 12:30:36;;;;;;;8.87;4.00;;;;;;;;;;5103951;28;20800;-75
2024/01/28 12:33:01;;;;;;;7.70;4.05;;;;;;;;;;5106800;28;20289;-75
2024/01/28 12:35:27;;;;;;;6.85;4.32;;;;;;;;;;5105817;28;20106;-75
2024/01/28 12:37:52;;;;;;;7.87;3.97;;;;;;;;;;5105635;28;20040;-75
2024/01/28 12:40:17;;;;;;;6.90;3.97;;;;;;;;;;5105546;28;20042;-75
2024/01/28 12:42:42;;;;;;;6.73;3.70;;;;;;;;;;5105142;28;20768;-75
2024/01/28 12:45:08;;;;;;;6.87;4.00;;;;;;;;;;5106196;28;20054;-75
2024/01/28 12:47:33;;;;;;;8.27;4.22;;;;;;;;;;5105401;28;20280;-75
2024/01/28 12:49:59;;;;;;;6.60;3.97;;;;;;;;;;5105335;28;20401;-75
2024/01/28 12:52:24;;;;;;;6.70;4.07;;;;;;;;;;5105983;28;20020;-75
2024/01/28 12:54:49;;;;;;;7.80;4.20;;;;;;;;;;5104384;28;20028;-75
2024/01/28 12:57:14;;;;;;;6.93;3.43;;;;;;;;;;5105927;28;20365;-76
2024/01/28 12:59:41;;;;;;;6.85;3.80;;;;;;;;;;5105938;28;20317;-75
2024/01/28 13:02:07;;;;;;;6.22;3.92;;;;;;;;;;5104713;28;20024;-76
2024/01/28 13:04:33;;;;;;;6.57;3.50;;;;;;;;;;5108386;28;20048;-76
2024/01/28 13:06:58;;;;;;;8.25;3.92;;;;;;;;;;5101794;28;20439;-75
2024/01/28 13:09:23;;;;;;;6.97;3.67;;;;;;;;;;5105534;28;20490;-76
2024/01/28 13:11:48;;;;;;;7.30;4.13;;;;;;;;;;5105759;28;20438;-75
2024/01/28 13:14:15;;;;;;;7.60;3.83;;;;;;;;;;5104871;28;20487;-75
2024/01/28 13:16:40;;;;;;;6.80;3.63;;;;;;;;;;5105407;28;20027;-76
2024/01/28 13:19:05;;;;;;;7.20;3.40;;;;;;;;;;5104259;28;20028;-75
2024/01/28 13:21:30;;;;;;;4.97;3.50;;;;;;;;;;5104297;28;20261;-75
2024/01/28 13:23:57;;;;;;;6.10;3.30;;;;;;;;;;5106041;28;20483;-75
2024/01/28 13:26:22;;;;;;;6.35;3.72;;;;;;;;;;5103460;28;20117;-75
2024/01/28 13:28:47;;;;;;;8.32;3.85;;;;;;;;;;5107295;28;20447;-75
2024/01/28 13:31:13;;;;;;;8.40;3.23;;;;;;;;;;5102104;28;20028;-75
2024/01/28 13:33:38;;;;;;;7.07;3.63;;;;;;;;;;5109279;28;20102;-75
2024/01/28 13:36:03;;;;;;;6.70;3.30;;;;;;;;;;5100424;28;20628;-75
2024/01/28 13:38:28;;;;;;;6.65;3.55;;;;;;;;;;5109851;28;20015;-75
2024/01/28 13:40:53;;;;;;;5.03;3.00;;;;;;;;;;5101534;28;20016;-75
2024/01/28 13:43:19;;;;;;;8.30;3.77;;;;;;;;;;5107364;28;20507;-75
2024/01/28 13:45:44;;;;;;;7.20;3.47;;;;;;;;;;5103187;28;20076;-75
2024/01/28 13:48:09;;;;;;;7.13;4.20;;;;;;;;;;5106076;28;20262;-75
2024/01/28 13:50:34;;;;;;;5.72;3.20;;;;;;;;;;5104329;28;20621;-75
2024/01/28 13:52:59;;;;;;;6.10;3.60;;;;;;;;;;5104127;28;20049;-75
2024/01/28 13:55:25;;;;;;;4.63;3.28;;;;;;;;;;5104593;28;20379;-75
2024/01/28 13:57:50;;;;;;;6.85;4.10;;;;;;;;;;5103410;28;20027;-75
2024/01/28 14:00:15;;;;;;;5.68;3.28;;;;;;;;;;5100751;28;20184;-75
2024/01/28 14:02:41;;;;;;;6.80;3.75;;;;;;;;;;5102749;28;20497;-75
2024/01/28 14:05:07;;;;;;;7.35;3.90;;;;;;;;;;5103714;28;20085;-75
2024/01/28 14:07:32;;;;;;;7.82;3.65;;;;;;;;;;5104936;28;20412;-75
2024/01/28 14:09:58;;;;;;;7.47;3.72;;;;;;;;;;5100986;28;20371;-75
2024/01/28 14:12:23;;;;;;;5.47;3.53;;;;;;;;;;5107371;28;20011;-75
2024/01/28 14:14:48;;;;;;;6.83;4.03;;;;;;;;;;5104013;28;20293;-75
2024/01/28 14:17:13;;;;;;;7.30;4.00;;;;;;;;;;5101937;28;20269;-75